JLY301 LGSK-LQSA
Flight info
| Callsign | JLY301 |
|---|---|
| Flight time | 1h 2m |
| Altitude | 38000 |
| Route | TSL UN130 TALAS DCT LONTA DCT KEB |
| Aircraft | A320/M-SDE3FGHIRWY/LB1 |
Departure
| Time | 2026-04-27 00:44 |
|---|---|
| Airport | Skiathos Island National Airport (LGSK) |
Arrival
| Time | 2026-04-27 01:47 |
|---|---|
| Airport | Sarajevo International Airport (LQSA) |
| Time | Latitude | Longitude | Altitude | Speed | Heading |
|---|---|---|---|---|---|
| 2026-04-27 00:41 | 39.17635 | 23.50232 | 39 ft | 13 kts | 197° |
| 2026-04-27 00:41 | 39.17562 | 23.50254 | 39 ft | 11 kts | 135° |
| 2026-04-27 00:41 | 39.17500 | 23.50275 | 40 ft | 12 kts | 195° |
| 2026-04-27 00:41 | 39.17372 | 23.50220 | 35 ft | 24 kts | 199° |
| 2026-04-27 00:42 | 39.17192 | 23.50137 | 23 ft | 25 kts | 201° |
| 2026-04-27 00:42 | 39.17064 | 23.50093 | 18 ft | 14 kts | 174° |
| 2026-04-27 00:42 | 39.17021 | 23.50080 | 11 ft | 2 kts | 266° |
| 2026-04-27 00:42 | 39.17029 | 23.50071 | 14 ft | 0 kts | 328° |
| 2026-04-27 00:43 | 39.17034 | 23.50071 | 14 ft | 3 kts | 348° |
| 2026-04-27 00:43 | 39.17052 | 23.50075 | 14 ft | 0 kts | 15° |
| 2026-04-27 00:43 | 39.17197 | 23.50138 | 23 ft | 64 kts | 19° |
| 2026-04-27 00:44 | 39.17871 | 23.50440 | 44 ft | 138 kts | 19° |
| 2026-04-27 00:44 | 39.18816 | 23.50856 | 655 ft | 147 kts | 18° |
| 2026-04-27 00:44 | 39.19796 | 23.51263 | 1441 ft | 149 kts | 17° |
| 2026-04-27 00:44 | 39.20843 | 23.51699 | 1993 ft | 169 kts | 17° |
| 2026-04-27 00:45 | 39.21979 | 23.52366 | 2493 ft | 192 kts | 36° |
| 2026-04-27 00:45 | 39.22797 | 23.53859 | 2983 ft | 218 kts | 73° |
| 2026-04-27 00:45 | 39.22790 | 23.55809 | 4037 ft | 224 kts | 105° |
| 2026-04-27 00:45 | 39.21960 | 23.57516 | 5083 ft | 231 kts | 133° |
| 2026-04-27 00:46 | 39.20725 | 23.58863 | 6112 ft | 234 kts | 140° |
| 2026-04-27 00:46 | 39.19408 | 23.60121 | 7066 ft | 238 kts | 141° |
| 2026-04-27 00:46 | 39.18075 | 23.61413 | 8001 ft | 241 kts | 140° |
| 2026-04-27 00:46 | 39.16793 | 23.62810 | 9000 ft | 240 kts | 127° |
| 2026-04-27 00:47 | 39.16102 | 23.64719 | 9983 ft | 237 kts | 94° |
| 2026-04-27 00:47 | 39.16350 | 23.66789 | 10820 ft | 237 kts | 61° |
| 2026-04-27 00:47 | 39.17461 | 23.68326 | 11691 ft | 238 kts | 27° |
| 2026-04-27 00:47 | 39.19067 | 23.68818 | 12510 ft | 244 kts | 355° |
| 2026-04-27 00:48 | 39.20661 | 23.68091 | 13354 ft | 249 kts | 323° |
| 2026-04-27 00:48 | 39.21774 | 23.66356 | 14173 ft | 257 kts | 298° |
| 2026-04-27 00:48 | 39.22577 | 23.64273 | 14937 ft | 265 kts | 297° |
| 2026-04-27 00:48 | 39.23430 | 23.62041 | 15278 ft | 290 kts | 297° |
| 2026-04-27 00:49 | 39.24361 | 23.59616 | 15585 ft | 314 kts | 297° |
| 2026-04-27 00:49 | 39.25504 | 23.57107 | 15803 ft | 336 kts | 310° |
| 2026-04-27 00:49 | 39.27361 | 23.55178 | 16240 ft | 351 kts | 333° |
| 2026-04-27 00:49 | 39.29716 | 23.54272 | 16946 ft | 359 kts | 352° |
| 2026-04-27 00:50 | 39.32218 | 23.53991 | 17747 ft | 362 kts | 353° |
| 2026-04-27 00:50 | 39.37133 | 23.52671 | 19192 ft | 366 kts | 340° |
| 2026-04-27 00:50 | 39.39555 | 23.51482 | 19889 ft | 369 kts | 335° |
| 2026-04-27 00:51 | 39.41886 | 23.50162 | 20575 ft | 372 kts | 335° |
| 2026-04-27 00:51 | 39.44290 | 23.48873 | 21266 ft | 376 kts | 336° |
| 2026-04-27 00:51 | 39.46743 | 23.47649 | 21950 ft | 380 kts | 338° |
| 2026-04-27 00:51 | 39.49233 | 23.46454 | 22625 ft | 384 kts | 338° |
| 2026-04-27 00:52 | 39.51753 | 23.45266 | 23270 ft | 387 kts | 338° |
| 2026-04-27 00:52 | 39.54302 | 23.44068 | 23865 ft | 391 kts | 338° |
| 2026-04-27 00:52 | 39.56863 | 23.42851 | 24390 ft | 394 kts | 338° |
| 2026-04-27 00:52 | 39.59446 | 23.41609 | 24873 ft | 398 kts | 338° |
| 2026-04-27 00:53 | 39.62051 | 23.40343 | 25343 ft | 402 kts | 337° |
| 2026-04-27 00:53 | 39.64679 | 23.39061 | 25815 ft | 405 kts | 337° |
| 2026-04-27 00:53 | 39.67327 | 23.37765 | 26278 ft | 408 kts | 337° |
| 2026-04-27 00:53 | 39.69992 | 23.36459 | 26739 ft | 411 kts | 337° |
| 2026-04-27 00:54 | 39.72695 | 23.35136 | 26968 ft | 420 kts | 337° |
| 2026-04-27 00:54 | 39.75463 | 23.33783 | 27099 ft | 430 kts | 337° |
| 2026-04-27 00:54 | 39.78297 | 23.32400 | 27237 ft | 439 kts | 338° |
| 2026-04-27 00:54 | 39.81176 | 23.30996 | 27363 ft | 446 kts | 338° |
| 2026-04-27 00:55 | 39.84098 | 23.29566 | 27506 ft | 452 kts | 337° |
| 2026-04-27 00:55 | 39.87016 | 23.28003 | 27630 ft | 454 kts | 330° |
| 2026-04-27 00:55 | 39.89619 | 23.25678 | 27769 ft | 455 kts | 320° |
| 2026-04-27 00:55 | 39.92086 | 23.23075 | 27905 ft | 457 kts | 320° |
| 2026-04-27 00:56 | 39.94554 | 23.20450 | 28038 ft | 459 kts | 319° |
| 2026-04-27 00:56 | 39.97020 | 23.17810 | 28171 ft | 460 kts | 319° |
| 2026-04-27 00:56 | 39.99492 | 23.15151 | 28305 ft | 461 kts | 319° |
| 2026-04-27 00:56 | 40.01964 | 23.12487 | 28442 ft | 461 kts | 319° |
| 2026-04-27 00:57 | 40.04436 | 23.09827 | 28581 ft | 461 kts | 319° |
| 2026-04-27 00:57 | 40.06918 | 23.07161 | 28722 ft | 462 kts | 319° |
| 2026-04-27 00:57 | 40.09398 | 23.04497 | 28859 ft | 462 kts | 319° |
| 2026-04-27 00:57 | 40.11878 | 23.01829 | 29018 ft | 462 kts | 319° |
| 2026-04-27 00:58 | 40.14355 | 22.99166 | 29188 ft | 461 kts | 319° |
| 2026-04-27 00:58 | 40.16834 | 22.96497 | 29366 ft | 461 kts | 319° |
| 2026-04-27 00:58 | 40.19307 | 22.93829 | 29541 ft | 461 kts | 319° |
| 2026-04-27 00:58 | 40.21779 | 22.91162 | 29716 ft | 461 kts | 319° |
| 2026-04-27 00:59 | 40.24249 | 22.88496 | 29900 ft | 460 kts | 319° |
| 2026-04-27 00:59 | 40.26717 | 22.85829 | 30086 ft | 460 kts | 319° |
| 2026-04-27 00:59 | 40.29183 | 22.83158 | 30250 ft | 460 kts | 319° |
| 2026-04-27 00:59 | 40.31643 | 22.80490 | 30415 ft | 459 kts | 319° |
| 2026-04-27 01:00 | 40.34095 | 22.77829 | 30749 ft | 455 kts | 319° |
| 2026-04-27 01:00 | 40.36533 | 22.75202 | 31047 ft | 453 kts | 319° |
| 2026-04-27 01:00 | 40.38941 | 22.72623 | 31300 ft | 452 kts | 319° |
| 2026-04-27 01:00 | 40.41381 | 22.70017 | 31571 ft | 452 kts | 319° |
| 2026-04-27 01:01 | 40.43814 | 22.67418 | 31839 ft | 451 kts | 319° |
| 2026-04-27 01:01 | 40.46244 | 22.64822 | 32094 ft | 450 kts | 319° |
| 2026-04-27 01:01 | 40.48671 | 22.62226 | 32375 ft | 449 kts | 319° |
| 2026-04-27 01:01 | 40.51090 | 22.59630 | 32654 ft | 449 kts | 319° |
| 2026-04-27 01:02 | 40.53503 | 22.57035 | 32932 ft | 448 kts | 319° |
| 2026-04-27 01:02 | 40.55914 | 22.54440 | 33207 ft | 448 kts | 319° |
| 2026-04-27 01:02 | 40.58320 | 22.51846 | 33488 ft | 447 kts | 319° |
| 2026-04-27 01:02 | 40.60720 | 22.49255 | 33771 ft | 446 kts | 319° |
| 2026-04-27 01:03 | 40.63115 | 22.46659 | 34058 ft | 445 kts | 319° |
| 2026-04-27 01:03 | 40.65507 | 22.44065 | 34320 ft | 445 kts | 319° |
| 2026-04-27 01:03 | 40.67894 | 22.41481 | 34560 ft | 445 kts | 319° |
| 2026-04-27 01:03 | 40.70284 | 22.38895 | 34816 ft | 444 kts | 319° |
| 2026-04-27 01:04 | 40.72667 | 22.36313 | 35077 ft | 443 kts | 319° |
| 2026-04-27 01:04 | 40.75042 | 22.33730 | 35344 ft | 442 kts | 319° |
| 2026-04-27 01:04 | 40.77412 | 22.31148 | 35618 ft | 441 kts | 319° |
| 2026-04-27 01:04 | 40.79781 | 22.28574 | 35869 ft | 441 kts | 319° |
| 2026-04-27 01:05 | 40.82143 | 22.26007 | 36127 ft | 440 kts | 319° |
| 2026-04-27 01:05 | 40.84503 | 22.23439 | 36375 ft | 439 kts | 319° |
| 2026-04-27 01:05 | 40.86852 | 22.20878 | 36614 ft | 438 kts | 319° |
| 2026-04-27 01:05 | 40.89201 | 22.18317 | 36862 ft | 437 kts | 319° |
| 2026-04-27 01:06 | 40.91544 | 22.15759 | 37099 ft | 436 kts | 319° |
| 2026-04-27 01:06 | 40.93882 | 22.13204 | 37334 ft | 436 kts | 319° |
| 2026-04-27 01:06 | 40.96215 | 22.10649 | 37546 ft | 436 kts | 319° |
| 2026-04-27 01:06 | 40.98548 | 22.08088 | 37755 ft | 435 kts | 319° |
| 2026-04-27 01:07 | 41.00877 | 22.05529 | 37977 ft | 435 kts | 319° |
| 2026-04-27 01:07 | 41.03208 | 22.02968 | 38157 ft | 435 kts | 319° |
| 2026-04-27 01:07 | 41.05538 | 22.00406 | 38192 ft | 435 kts | 319° |
| 2026-04-27 01:08 | 41.10191 | 21.95282 | 38185 ft | 434 kts | 319° |
| 2026-04-27 01:08 | 41.14828 | 21.90167 | 38209 ft | 433 kts | 319° |
| 2026-04-27 01:09 | 41.19460 | 21.85041 | 38208 ft | 433 kts | 319° |
| 2026-04-27 01:09 | 41.24096 | 21.79920 | 38220 ft | 434 kts | 319° |
| 2026-04-27 01:10 | 41.28725 | 21.74782 | 38220 ft | 434 kts | 318° |
| 2026-04-27 01:10 | 41.33355 | 21.69634 | 38227 ft | 434 kts | 318° |
| 2026-04-27 01:11 | 41.37955 | 21.64514 | 38236 ft | 434 kts | 318° |
| 2026-04-27 01:11 | 41.42584 | 21.59349 | 38234 ft | 434 kts | 318° |
| 2026-04-27 01:12 | 41.47211 | 21.54177 | 38237 ft | 434 kts | 318° |
| 2026-04-27 01:12 | 41.51837 | 21.49003 | 38242 ft | 434 kts | 318° |
| 2026-04-27 01:13 | 41.56463 | 21.43815 | 38243 ft | 434 kts | 318° |
| 2026-04-27 01:13 | 41.61084 | 21.38621 | 38248 ft | 434 kts | 318° |
| 2026-04-27 01:14 | 41.65703 | 21.33415 | 38245 ft | 434 kts | 318° |
| 2026-04-27 01:14 | 41.70326 | 21.28206 | 38242 ft | 434 kts | 318° |
| 2026-04-27 01:15 | 41.74943 | 21.22990 | 38245 ft | 434 kts | 318° |
| 2026-04-27 01:15 | 41.79555 | 21.17766 | 38244 ft | 434 kts | 318° |
| 2026-04-27 01:16 | 41.84166 | 21.12532 | 38248 ft | 434 kts | 318° |
| 2026-04-27 01:16 | 41.88778 | 21.07285 | 38249 ft | 435 kts | 318° |
| 2026-04-27 01:17 | 41.93351 | 21.02063 | 38247 ft | 435 kts | 318° |
| 2026-04-27 01:17 | 41.97960 | 20.96804 | 38244 ft | 435 kts | 318° |
| 2026-04-27 01:18 | 42.02569 | 20.91535 | 38242 ft | 435 kts | 318° |
| 2026-04-27 01:18 | 42.07170 | 20.86263 | 38243 ft | 435 kts | 318° |
| 2026-04-27 01:19 | 42.11770 | 20.80977 | 38254 ft | 435 kts | 317° |
| 2026-04-27 01:19 | 42.16364 | 20.75688 | 38251 ft | 435 kts | 317° |
| 2026-04-27 01:20 | 42.20962 | 20.70389 | 38245 ft | 435 kts | 317° |
| 2026-04-27 01:20 | 42.25556 | 20.65081 | 38244 ft | 435 kts | 317° |
| 2026-04-27 01:21 | 42.30149 | 20.59765 | 38243 ft | 435 kts | 317° |
| 2026-04-27 01:21 | 42.34739 | 20.54438 | 38250 ft | 435 kts | 317° |
| 2026-04-27 01:22 | 42.39329 | 20.49109 | 38249 ft | 435 kts | 317° |
| 2026-04-27 01:22 | 42.43911 | 20.43766 | 38244 ft | 435 kts | 317° |
| 2026-04-27 01:23 | 42.48493 | 20.38416 | 38248 ft | 435 kts | 317° |
| 2026-04-27 01:23 | 42.53074 | 20.33058 | 38242 ft | 435 kts | 317° |
| 2026-04-27 01:24 | 42.57658 | 20.27694 | 38249 ft | 435 kts | 317° |
| 2026-04-27 01:24 | 42.62235 | 20.22327 | 38259 ft | 435 kts | 317° |
| 2026-04-27 01:25 | 42.66804 | 20.16948 | 38265 ft | 434 kts | 317° |
| 2026-04-27 01:25 | 42.71371 | 20.11565 | 38264 ft | 434 kts | 317° |
| 2026-04-27 01:26 | 42.75954 | 20.06220 | 38256 ft | 433 kts | 317° |
| 2026-04-27 01:26 | 42.79749 | 20.01779 | 38259 ft | 433 kts | 317° |
| 2026-04-27 01:27 | 42.84314 | 19.96420 | 38270 ft | 433 kts | 317° |
| 2026-04-27 01:27 | 42.87383 | 19.92820 | 37297 ft | 439 kts | 317° |
| 2026-04-27 01:27 | 42.88917 | 19.91020 | 36625 ft | 439 kts | 317° |
| 2026-04-27 01:27 | 42.91233 | 19.88299 | 35746 ft | 439 kts | 317° |
| 2026-04-27 01:28 | 42.93540 | 19.85584 | 34842 ft | 439 kts | 317° |
| 2026-04-27 01:28 | 42.95852 | 19.82859 | 33828 ft | 441 kts | 318° |
| 2026-04-27 01:28 | 42.98176 | 19.80119 | 32774 ft | 441 kts | 318° |
| 2026-04-27 01:28 | 43.00498 | 19.77378 | 31661 ft | 443 kts | 318° |
| 2026-04-27 01:29 | 43.02832 | 19.74619 | 30798 ft | 441 kts | 318° |
| 2026-04-27 01:29 | 43.05127 | 19.71905 | 30156 ft | 433 kts | 318° |
| 2026-04-27 01:29 | 43.07386 | 19.69230 | 29414 ft | 426 kts | 318° |
| 2026-04-27 01:29 | 43.09612 | 19.66597 | 28741 ft | 420 kts | 318° |
| 2026-04-27 01:30 | 43.11806 | 19.64001 | 28071 ft | 414 kts | 319° |
| 2026-04-27 01:30 | 43.13969 | 19.61432 | 27417 ft | 409 kts | 319° |
| 2026-04-27 01:30 | 43.16106 | 19.58891 | 26772 ft | 405 kts | 319° |
| 2026-04-27 01:30 | 43.18225 | 19.56375 | 26134 ft | 401 kts | 319° |
| 2026-04-27 01:31 | 43.20324 | 19.53880 | 25502 ft | 398 kts | 319° |
| 2026-04-27 01:31 | 43.22406 | 19.51399 | 24882 ft | 395 kts | 319° |
| 2026-04-27 01:31 | 43.24472 | 19.48932 | 24280 ft | 393 kts | 319° |
| 2026-04-27 01:31 | 43.26524 | 19.46476 | 23683 ft | 390 kts | 319° |
| 2026-04-27 01:32 | 43.28558 | 19.44040 | 23087 ft | 387 kts | 319° |
| 2026-04-27 01:32 | 43.30571 | 19.41630 | 22557 ft | 382 kts | 319° |
| 2026-04-27 01:32 | 43.32563 | 19.39247 | 22048 ft | 377 kts | 319° |
| 2026-04-27 01:32 | 43.34528 | 19.36894 | 21532 ft | 373 kts | 319° |
| 2026-04-27 01:33 | 43.36467 | 19.34563 | 21041 ft | 369 kts | 319° |
| 2026-04-27 01:33 | 43.38389 | 19.32251 | 20523 ft | 365 kts | 319° |
| 2026-04-27 01:33 | 43.40293 | 19.29965 | 20009 ft | 362 kts | 319° |
| 2026-04-27 01:33 | 43.42188 | 19.27689 | 19490 ft | 360 kts | 319° |
| 2026-04-27 01:34 | 43.44068 | 19.25427 | 18963 ft | 359 kts | 319° |
| 2026-04-27 01:34 | 43.45942 | 19.23166 | 18414 ft | 358 kts | 319° |
| 2026-04-27 01:34 | 43.47811 | 19.20911 | 17836 ft | 356 kts | 319° |
| 2026-04-27 01:34 | 43.49668 | 19.18675 | 17302 ft | 353 kts | 319° |
| 2026-04-27 01:35 | 43.51451 | 19.16364 | 16762 ft | 351 kts | 312° |
| 2026-04-27 01:35 | 43.52907 | 19.13671 | 16239 ft | 350 kts | 301° |
| 2026-04-27 01:35 | 43.53960 | 19.10664 | 15725 ft | 348 kts | 290° |
| 2026-04-27 01:35 | 43.54665 | 19.07479 | 15199 ft | 347 kts | 287° |
| 2026-04-27 01:36 | 43.55329 | 19.04327 | 14686 ft | 346 kts | 287° |
| 2026-04-27 01:36 | 43.56002 | 19.01149 | 14163 ft | 345 kts | 287° |
| 2026-04-27 01:36 | 43.56675 | 18.97979 | 13592 ft | 344 kts | 287° |
| 2026-04-27 01:36 | 43.57343 | 18.94829 | 13053 ft | 341 kts | 287° |
| 2026-04-27 01:37 | 43.58007 | 18.91707 | 12522 ft | 338 kts | 287° |
| 2026-04-27 01:37 | 43.58663 | 18.88614 | 11975 ft | 335 kts | 287° |
| 2026-04-27 01:37 | 43.59312 | 18.85539 | 11431 ft | 332 kts | 287° |
| 2026-04-27 01:37 | 43.59947 | 18.82533 | 11245 ft | 319 kts | 287° |
| 2026-04-27 01:38 | 43.60551 | 18.79658 | 11116 ft | 305 kts | 287° |
| 2026-04-27 01:38 | 43.61129 | 18.76903 | 10926 ft | 295 kts | 287° |
| 2026-04-27 01:38 | 43.61692 | 18.74208 | 10616 ft | 289 kts | 287° |
| 2026-04-27 01:38 | 43.62242 | 18.71583 | 10379 ft | 281 kts | 288° |
| 2026-04-27 01:39 | 43.62780 | 18.69017 | 10124 ft | 275 kts | 287° |
| 2026-04-27 01:39 | 43.63315 | 18.66467 | 9613 ft | 278 kts | 287° |
| 2026-04-27 01:39 | 43.63844 | 18.63936 | 9188 ft | 268 kts | 288° |
| 2026-04-27 01:39 | 43.64349 | 18.61523 | 8806 ft | 255 kts | 288° |
| 2026-04-27 01:40 | 43.64830 | 18.59223 | 8451 ft | 244 kts | 287° |
| 2026-04-27 01:40 | 43.65291 | 18.57015 | 8096 ft | 235 kts | 288° |
| 2026-04-27 01:40 | 43.65733 | 18.54885 | 7758 ft | 227 kts | 286° |
| 2026-04-27 01:40 | 43.66012 | 18.52762 | 7436 ft | 225 kts | 277° |
| 2026-04-27 01:41 | 43.66057 | 18.50590 | 7105 ft | 227 kts | 268° |
| 2026-04-27 01:41 | 43.65865 | 18.48410 | 6764 ft | 231 kts | 259° |
| 2026-04-27 01:41 | 43.65681 | 18.46210 | 6404 ft | 230 kts | 274° |
| 2026-04-27 01:41 | 43.65991 | 18.44094 | 6067 ft | 221 kts | 292° |
| 2026-04-27 01:42 | 43.66719 | 18.42281 | 5746 ft | 212 kts | 310° |
| 2026-04-27 01:42 | 43.67744 | 18.40904 | 5479 ft | 200 kts | 326° |
| 2026-04-27 01:42 | 43.68920 | 18.39977 | 5176 ft | 190 kts | 339° |
| 2026-04-27 01:42 | 43.70127 | 18.39488 | 4886 ft | 173 kts | 352° |
| 2026-04-27 01:43 | 43.71283 | 18.39374 | 4640 ft | 162 kts | 3° |
| 2026-04-27 01:43 | 43.72376 | 18.39508 | 4403 ft | 154 kts | 6° |
| 2026-04-27 01:43 | 43.73423 | 18.39644 | 4162 ft | 148 kts | 5° |
| 2026-04-27 01:43 | 43.74431 | 18.39775 | 3954 ft | 144 kts | 5° |
| 2026-04-27 01:44 | 43.75419 | 18.39905 | 3755 ft | 142 kts | 5° |
| 2026-04-27 01:44 | 43.76399 | 18.40034 | 3560 ft | 141 kts | 6° |
| 2026-04-27 01:44 | 43.77368 | 18.40161 | 3346 ft | 139 kts | 6° |
| 2026-04-27 01:44 | 43.78328 | 18.40139 | 3135 ft | 138 kts | 351° |
| 2026-04-27 01:45 | 43.79230 | 18.39748 | 2905 ft | 139 kts | 335° |
| 2026-04-27 01:45 | 43.80030 | 18.39000 | 2686 ft | 139 kts | 318° |
| 2026-04-27 01:45 | 43.80641 | 18.37970 | 2452 ft | 139 kts | 301° |
| 2026-04-27 01:45 | 43.81086 | 18.36791 | 2234 ft | 138 kts | 297° |
| 2026-04-27 01:46 | 43.81528 | 18.35622 | 1989 ft | 136 kts | 298° |
| 2026-04-27 01:46 | 43.81962 | 18.34467 | 1789 ft | 135 kts | 297° |
| 2026-04-27 01:46 | 43.82385 | 18.33341 | 1689 ft | 121 kts | 297° |
| 2026-04-27 01:46 | 43.82670 | 18.32585 | 1677 ft | 60 kts | 297° |
| 2026-04-27 01:47 | 43.82780 | 18.32289 | 1673 ft | 30 kts | 297° |
| 2026-04-27 01:47 | 43.82845 | 18.32096 | 1671 ft | 18 kts | 306° |
| 2026-04-27 01:47 | 43.82891 | 18.32020 | 1661 ft | 3 kts | 243° |
| 2026-04-27 01:47 | 43.82872 | 18.32042 | 1667 ft | 10 kts | 127° |
| 2026-04-27 01:48 | 43.82838 | 18.32136 | 1670 ft | 11 kts | 116° |
| 2026-04-27 01:48 | 43.82780 | 18.32290 | 1675 ft | 24 kts | 117° |
| 2026-04-27 01:48 | 43.82702 | 18.32497 | 1674 ft | 24 kts | 117° |
| 2026-04-27 01:48 | 43.82627 | 18.32702 | 1684 ft | 24 kts | 117° |
| 2026-04-27 01:49 | 43.82550 | 18.32905 | 1682 ft | 24 kts | 117° |
| 2026-04-27 01:49 | 43.82503 | 18.33106 | 1684 ft | 20 kts | 84° |
| 2026-04-27 01:49 | 43.82542 | 18.33283 | 1681 ft | 17 kts | 67° |
| 2026-04-27 01:49 | 43.82535 | 18.33421 | 1680 ft | 12 kts | 115° |
| 2026-04-27 01:50 | 43.82516 | 18.33475 | 1686 ft | 3 kts | 117° |
| 2026-04-27 01:50 | 43.82489 | 18.33541 | 1689 ft | 8 kts | 118° |
| 2026-04-27 01:50 | 43.82486 | 18.33590 | 1688 ft | 4 kts | 50° |
| 2026-04-27 01:50 | 43.82523 | 18.33616 | 1686 ft | 8 kts | 26° |
| 2026-04-27 01:51 | 43.82539 | 18.33627 | 1689 ft | 0 kts | 28° |